Time;durP1;ratioP1;P1;durP2;ratioP2;P2;SDS_P1;SDS_P2;PMS_P1;PMS_P2;Temp;Humidity;BMP_temperature;BMP_pressure;BME280_temperature;BME280_humidity;BME280_pressure;Samples;Min_cycle;Max_cycle;Signal;HPM_P1;HPM_P2
2021/03/14 00:00:47;;;;;;;17.10;2.55;;;;;;;5.93;93.27;100225.53;12847388;23;20005;-77
2021/03/14 00:05:50;;;;;;;17.88;2.72;;;;;;;5.88;93.56;100228.47;12846933;23;20040;-77
2021/03/14 00:10:56;;;;;;;16.88;2.38;;;;;;;5.73;93.86;100205.03;12847487;23;20381;-78
2021/03/14 00:15:57;;;;;;;10.75;2.65;;;;;;;5.60;93.92;100211.59;12820610;23;20064;-77
2021/03/14 00:20:58;;;;;;;8.38;1.92;;;;;;;5.85;93.76;100255.94;12846503;23;20016;-77
2021/03/14 00:25:59;;;;;;;17.27;2.53;;;;;;;5.74;93.54;100260.25;12796756;23;20044;-78
2021/03/14 00:31:00;;;;;;;15.63;1.95;;;;;;;5.65;92.31;100259.63;12821414;23;20019;-78
2021/03/14 00:36:00;;;;;;;12.90;2.80;;;;;;;5.61;91.71;100282.84;12825722;23;20481;-78
2021/03/14 00:41:01;;;;;;;10.85;2.15;;;;;;;5.28;90.67;100238.25;12824550;23;20455;-78
2021/03/14 00:46:01;;;;;;;12.27;2.20;;;;;;;5.34;90.46;100252.97;12850081;23;20063;-78
2021/03/14 00:51:02;;;;;;;21.08;4.70;;;;;;;5.24;89.25;100248.06;12825471;23;20008;-78
2021/03/14 00:56:02;;;;;;;13.00;1.88;;;;;;;5.49;88.32;100297.84;12823735;23;20071;-78
2021/03/14 01:01:03;;;;;;;11.90;1.80;;;;;;;5.21;88.39;100259.47;12822966;23;20005;-78
2021/03/14 01:06:03;;;;;;;14.50;2.10;;;;;;;5.59;88.73;100322.63;12851724;23;20523;-77
2021/03/14 01:11:04;;;;;;;11.30;2.47;;;;;;;5.56;88.46;100328.66;12851414;23;20004;-77
2021/03/14 01:16:05;;;;;;;12.38;2.20;;;;;;;4.71;89.56;100221.19;12824056;23;20040;-78
2021/03/14 01:21:05;;;;;;;11.38;2.03;;;;;;;5.01;90.39;100278.00;12850398;23;20024;-78
2021/03/14 01:26:06;;;;;;;12.80;1.83;;;;;;;5.05;90.17;100262.81;12824182;23;20020;-78
2021/03/14 01:31:06;;;;;;;18.20;2.42;;;;;;;5.43;90.86;100352.81;12847392;23;20036;-77
2021/03/14 01:36:07;;;;;;;13.68;2.40;;;;;;;5.46;90.78;100360.19;12851220;23;20024;-78
2021/03/14 01:41:07;;;;;;;12.20;1.80;;;;;;;5.12;92.46;100304.34;12825579;23;20075;-77
2021/03/14 01:46:09;;;;;;;16.55;2.90;;;;;;;4.95;98.82;100308.81;12796802;23;20032;-78
2021/03/14 01:51:10;;;;;;;16.02;2.60;;;;;;;5.08;100.00;100358.59;12825046;23;20111;-77
2021/03/14 01:56:11;;;;;;;18.58;3.78;;;;;;;4.98;100.00;100374.31;12817469;23;20092;-77
2021/03/14 02:01:12;;;;;;;18.67;2.67;;;;;;;4.95;100.00;100381.13;12820184;23;20009;-77
2021/03/14 02:06:12;;;;;;;15.30;3.35;;;;;;;4.47;100.00;100312.97;12850250;23;20051;-77
2021/03/14 02:11:13;;;;;;;19.60;3.40;;;;;;;4.58;100.00;100340.84;12823070;23;20012;-77
2021/03/14 02:16:26;;;;;;;18.90;3.70;;;;;;;4.89;100.00;100393.16;12849555;23;20001;-78
2021/03/14 02:21:34;;;;;;;23.45;3.00;;;;;;;4.95;100.00;100402.56;12823704;23;20009;-77
2021/03/14 02:26:41;;;;;;;13.77;3.67;;;;;;;4.85;100.00;100381.56;12824512;23;20013;-77
2021/03/14 02:31:43;;;;;;;20.00;2.63;;;;;;;4.83;100.00;100389.13;12822163;23;20382;-78
2021/03/14 02:36:45;;;;;;;14.38;2.63;;;;;;;4.74;100.00;100396.47;12822523;23;20055;-78
2021/03/14 02:41:47;;;;;;;18.02;3.50;;;;;;;4.50;100.00;100352.44;12821398;23;20196;-78
2021/03/14 02:46:48;;;;;;;11.57;2.90;;;;;;;5.00;100.00;100425.66;12795103;23;20013;-78
2021/03/14 02:51:49;;;;;;;16.73;3.35;;;;;;;4.98;100.00;100427.88;12822226;23;20091;-78
2021/03/14 02:56:50;;;;;;;10.80;3.33;;;;;;;4.62;100.00;100387.28;12821642;23;20019;-77
2021/03/14 03:01:52;;;;;;;13.55;3.20;;;;;;;4.12;100.00;100325.88;12849109;23;20416;-77
2021/03/14 03:06:54;;;;;;;19.10;3.13;;;;;;;4.29;100.00;100375.78;12822904;23;20031;-77
2021/03/14 03:11:56;;;;;;;10.30;1.92;;;;;;;4.61;100.00;100419.72;12822269;23;20075;-76
2021/03/14 03:16:57;;;;;;;13.25;3.53;;;;;;;4.76;100.00;100442.44;12821334;23;20004;-77
2021/03/14 03:21:58;;;;;;;11.82;2.33;;;;;;;4.73;100.00;100449.25;12822375;23;20012;-77
2021/03/14 03:26:58;;;;;;;15.38;2.28;;;;;;;4.78;100.00;100451.72;12820471;23;20021;-78
2021/03/14 03:31:58;;;;;;;16.80;2.65;;;;;;;4.77;100.00;100444.00;12847173;23;20051;-78
2021/03/14 03:36:59;;;;;;;21.42;2.83;;;;;;;4.74;100.00;100447.34;12847966;23;20063;-78
2021/03/14 03:42:03;;;;;;;9.93;1.83;;;;;;;4.60;100.00;100429.66;12847755;23;20125;-77
2021/03/14 03:47:06;;;;;;;10.07;1.90;;;;;;;4.55;100.00;100416.47;12821673;23;20320;-78
2021/03/14 03:52:06;;;;;;;;;;;;;;;4.78;100.00;100458.97;12823101;23;20015;-77
2021/03/14 03:57:07;;;;;;;10.48;2.03;;;;;;;4.56;100.00;100423.41;12819921;23;19919;-77
2021/03/14 04:02:08;;;;;;;13.27;2.40;;;;;;;4.78;100.00;100445.59;12823918;23;20012;-77
2021/03/14 04:07:10;;;;;;;14.52;2.10;;;;;;;4.79;100.00;100465.88;12821689;23;20383;-77
2021/03/14 04:12:11;;;;;;;14.43;2.00;;;;;;;4.73;100.00;100475.25;12826200;23;20101;-77
2021/03/14 04:17:12;;;;;;;11.82;2.42;;;;;;;4.66;100.00;100476.53;12824480;23;20253;-77
2021/03/14 04:22:12;;;;;;;12.35;2.92;;;;;;;4.76;100.00;100496.00;12827075;23;20008;-77
2021/03/14 04:27:13;;;;;;;17.27;3.28;;;;;;;4.22;100.00;100425.22;12799934;23;20423;-78
2021/03/14 04:32:13;;;;;;;9.45;2.10;;;;;;;4.73;100.00;100502.03;12826054;23;20017;-77
2021/03/14 04:37:14;;;;;;;8.88;2.15;;;;;;;4.80;100.00;100518.34;12849787;23;20020;-78
2021/03/14 04:42:15;;;;;;;14.63;2.30;;;;;;;4.51;100.00;100506.56;12825332;23;20432;-78
2021/03/14 04:47:16;;;;;;;13.52;4.68;;;;;;;4.57;100.00;100532.03;12824947;23;20062;-78
2021/03/14 04:52:22;;;;;;;11.75;2.00;;;;;;;4.54;100.00;100538.06;12824369;23;20066;-78
2021/03/14 04:57:22;;;;;;;19.52;2.47;;;;;;;4.56;100.00;100541.19;12799455;23;20020;-77
2021/03/14 05:02:26;;;;;;;10.93;2.30;;;;;;;4.42;100.00;100532.59;12799850;23;20059;-78
2021/03/14 05:07:28;;;;;;;10.45;1.83;;;;;;;4.29;100.00;100514.91;12798728;23;20315;-78
2021/03/14 05:12:29;;;;;;;15.98;2.78;;;;;;;3.26;100.00;100358.16;12798321;23;20004;-78
2021/03/14 05:17:31;;;;;;;15.80;2.55;;;;;;;4.55;100.00;100566.38;12848260;23;20012;-78
2021/03/14 05:22:31;;;;;;;12.07;2.17;;;;;;;4.41;100.00;100561.25;12797182;23;20036;-78
2021/03/14 05:27:32;;;;;;;9.15;2.80;;;;;;;4.56;100.00;100591.25;12794667;23;20031;-79
2021/03/14 05:32:33;;;;;;;7.90;2.10;;;;;;;4.56;100.00;100594.75;12853738;23;20430;-80
2021/03/14 05:37:34;;;;;;;11.30;2.30;;;;;;;3.99;100.00;100490.84;12799020;23;20027;-81
2021/03/14 05:42:34;;;;;;;11.25;2.90;;;;;;;4.49;100.00;100578.38;12823037;23;20009;-80
2021/03/14 05:47:36;;;;;;;10.10;2.83;;;;;;;4.61;100.00;100613.28;12822565;23;20013;-80
2021/03/14 05:52:41;;;;;;;8.47;2.40;;;;;;;4.65;100.00;100627.56;12823328;23;20009;-78
2021/03/14 05:57:43;;;;;;;10.18;2.10;;;;;;;4.57;100.00;100612.34;12848178;23;20431;-78
2021/03/14 06:02:46;;;;;;;10.93;2.10;;;;;;;4.63;100.00;100621.78;12799199;23;20004;-80
2021/03/14 06:07:47;;;;;;;5.60;2.38;;;;;;;4.48;100.00;100606.25;12823105;23;20020;-79
2021/03/14 06:12:47;;;;;;;8.70;2.33;;;;;;;4.44;100.00;100586.59;12848240;23;20008;-77
2021/03/14 06:17:48;;;;;;;7.97;2.60;;;;;;;4.41;100.00;100597.97;12822705;23;20040;-78
2021/03/14 06:22:55;;;;;;;13.98;2.47;;;;;;;4.66;100.00;100653.25;12822511;23;20080;-80
2021/03/14 06:27:55;;;;;;;14.00;2.75;;;;;;;4.80;100.00;100684.38;12822292;23;20462;-79
2021/03/14 06:33:20;;;;;;;7.65;2.67;;;;;;;3.94;100.00;100565.91;12797057;23;20040;-80
2021/03/14 06:38:23;;;;;;;8.38;3.20;;;;;;;4.78;100.00;100708.03;12849016;23;20013;-79
2021/03/14 06:43:29;;;;;;;14.77;3.47;;;;;;;4.27;100.00;100634.84;12848064;23;20005;-79
2021/03/14 06:48:30;;;;;;;8.07;3.22;;;;;;;4.63;100.00;100699.41;12821555;23;20071;-79
2021/03/14 06:53:30;;;;;;;12.13;3.17;;;;;;;4.40;100.00;100649.94;12822508;23;20305;-77
2021/03/14 06:58:33;;;;;;;10.88;2.92;;;;;;;4.47;100.00;100671.63;12848393;23;20099;-77
2021/03/14 07:03:33;;;;;;;16.25;3.50;;;;;;;4.87;100.00;100759.66;12822058;23;20375;-77
2021/03/14 07:08:34;;;;;;;6.75;2.88;;;;;;;4.90;100.00;100748.28;12821638;23;20031;-79
2021/03/14 07:13:36;;;;;;;9.55;3.63;;;;;;;4.87;100.00;100754.28;12847008;23;20015;-78
2021/03/14 07:18:36;;;;;;;17.73;3.70;;;;;;;5.12;100.00;100767.88;12822578;23;20019;-79
2021/03/14 07:23:37;;;;;;;20.73;4.75;;;;;;;5.21;100.00;100784.69;12821309;23;20055;-77
2021/03/14 07:28:37;;;;;;;11.20;4.00;;;;;;;5.29;100.00;100791.88;12848576;23;20319;-78
2021/03/14 07:33:38;;;;;;;18.13;5.20;;;;;;;5.32;100.00;100807.34;12854719;23;20020;-79
2021/03/14 07:38:38;;;;;;;15.60;3.58;;;;;;;5.31;100.00;100805.75;12797440;23;20070;-78
2021/03/14 07:43:39;;;;;;;15.60;3.42;;;;;;;4.79;100.00;100709.56;12823087;23;20087;-78
2021/03/14 07:48:40;;;;;;;11.82;3.00;;;;;;;5.44;100.00;100820.81;12825882;23;20439;-78
2021/03/14 07:53:41;;;;;;;11.80;3.53;;;;;;;5.79;100.00;100842.06;12826742;23;20442;-77
2021/03/14 07:58:42;;;;;;;12.95;2.65;;;;;;;6.03;100.00;100872.84;12825031;23;20088;-78
2021/03/14 08:03:42;;;;;;;13.40;2.40;;;;;;;6.11;100.00;100880.03;12826555;23;20091;-79
2021/03/14 08:08:43;;;;;;;10.57;2.33;;;;;;;6.03;100.00;100862.13;12831127;23;20073;-79
2021/03/14 08:13:44;;;;;;;10.52;3.03;;;;;;;5.93;100.00;100842.59;12850486;23;20036;-78
2021/03/14 08:18:51;;;;;;;11.77;2.35;;;;;;;6.20;100.00;100878.09;12852054;23;20099;-77
2021/03/14 08:23:56;;;;;;;11.38;2.33;;;;;;;6.61;100.00;100919.44;12850795;23;20008;-79
2021/03/14 08:29:01;;;;;;;8.45;2.80;;;;;;;6.32;100.00;100853.97;12824529;23;20087;-78
2021/03/14 08:34:02;;;;;;;10.48;3.17;;;;;;;6.67;100.00;100902.00;12852125;23;20335;-79
2021/03/14 08:39:04;;;;;;;11.77;3.10;;;;;;;7.25;100.00;100936.19;12824181;23;20086;-79
2021/03/14 08:44:06;;;;;;;14.95;2.67;;;;;;;7.47;99.15;100943.84;12851412;23;20005;-78
2021/03/14 08:49:08;;;;;;;12.80;2.50;;;;;;;7.46;98.14;100936.91;12848942;23;20332;-79
2021/03/14 08:54:09;;;;;;;11.23;2.55;;;;;;;7.31;96.59;100934.84;12822177;23;20669;-79
2021/03/14 08:59:14;;;;;;;5.72;1.95;;;;;;;7.50;96.17;100969.28;12850392;23;20008;-79
2021/03/14 09:04:16;;;;;;;9.48;1.98;;;;;;;7.43;95.88;100942.91;12853830;23;20007;-79
2021/03/14 09:09:20;;;;;;;10.95;1.70;;;;;;;7.60;95.10;100975.00;12824346;23;20170;-78
2021/03/14 09:14:29;;;;;;;7.97;1.92;;;;;;;7.30;95.09;100934.06;12823443;23;20165;-79
2021/03/14 09:19:33;;;;;;;9.48;1.73;;;;;;;7.29;94.71;100931.69;12849609;23;20436;-79
2021/03/14 09:24:38;;;;;;;10.15;1.92;;;;;;;7.61;94.18;101003.47;12848764;23;20013;-80
2021/03/14 09:29:42;;;;;;;10.55;2.10;;;;;;;7.74;94.55;101003.50;12823217;23;20005;-80
2021/03/14 09:34:43;;;;;;;14.10;2.33;;;;;;;7.54;95.05;101008.63;12851850;23;20046;-79
2021/03/14 09:39:43;;;;;;;15.23;2.20;;;;;;;7.61;96.62;101014.22;12825183;23;20052;-79
2021/03/14 09:44:43;;;;;;;13.13;2.50;;;;;;;7.57;96.26;101040.25;12852045;23;20005;-79
2021/03/14 09:50:06;;;;;;;10.88;2.10;;;;;;;7.86;94.80;101035.81;12826055;23;20082;-79
2021/03/14 09:55:06;;;;;;;15.63;2.38;;;;;;;7.77;92.63;101010.91;12825060;23;20008;-78
2021/03/14 10:00:08;;;;;;;13.23;1.95;;;;;;;7.79;91.96;100976.38;12851562;23;20012;-77
2021/03/14 10:05:09;;;;;;;9.68;1.73;;;;;;;7.76;88.94;100998.56;12825052;23;20009;-76
2021/03/14 10:10:11;;;;;;;14.15;2.17;;;;;;;8.26;88.54;101037.81;12852314;23;20012;-77
2021/03/14 10:15:15;;;;;;;10.97;2.00;;;;;;;7.98;85.21;100963.13;12801582;23;20017;-78
2021/03/14 10:20:19;;;;;;;12.60;1.65;;;;;;;8.67;85.97;101073.69;12822693;23;20610;-78
2021/03/14 10:25:28;;;;;;;9.45;1.90;;;;;;;8.55;84.98;101076.41;12825618;23;20032;-79
2021/03/14 10:30:29;;;;;;;13.07;2.15;;;;;;;8.88;83.96;101015.00;12798793;23;20035;-78
2021/03/14 10:35:30;;;;;;;13.13;1.92;;;;;;;9.58;78.68;101092.03;12853131;23;20370;-78
2021/03/14 10:40:30;;;;;;;13.02;1.88;;;;;;;9.43;75.83;101065.78;12824134;23;20027;-78
2021/03/14 10:45:31;;;;;;;10.75;2.53;;;;;;;9.14;79.03;101110.88;12851252;23;20028;-77
2021/03/14 10:50:35;;;;;;;17.52;2.47;;;;;;;8.91;80.33;101077.47;12851927;23;20005;-77
2021/03/14 10:55:37;;;;;;;10.15;2.40;;;;;;;9.25;81.24;101130.84;12775826;23;20420;-76
2021/03/14 11:00:43;;;;;;;13.80;2.10;;;;;;;9.15;80.45;101125.94;12850463;23;20009;-80
2021/03/14 11:05:44;;;;;;;14.13;3.10;;;;;;;8.61;79.79;101091.25;12849094;23;20636;-77
2021/03/14 11:10:55;;;;;;;10.95;2.38;;;;;;;8.64;80.38;101085.16;12770061;23;20066;-79
2021/03/14 11:16:09;;;;;;;10.90;2.30;;;;;;;8.81;78.91;101117.25;12847108;23;20116;-77
2021/03/14 11:21:10;;;;;;;10.32;2.22;;;;;;;8.79;78.92;101097.94;12821328;23;20080;-81
2021/03/14 11:26:10;;;;;;;11.43;2.30;;;;;;;9.26;79.01;101159.38;12851067;23;20095;-80
2021/03/14 11:31:11;;;;;;;18.23;2.85;;;;;;;9.20;76.81;101123.00;12847646;23;20303;-81
2021/03/14 11:36:11;;;;;;;11.65;2.85;;;;;;;9.25;77.89;101184.78;12852004;23;20020;-82
2021/03/14 11:41:12;;;;;;;11.25;2.08;;;;;;;9.05;77.31;101143.38;12849931;23;20021;-82
2021/03/14 11:46:13;;;;;;;18.85;2.92;;;;;;;9.31;76.74;101171.84;12849525;23;20063;-79
2021/03/14 11:51:13;;;;;;;12.80;2.65;;;;;;;9.18;75.21;101192.69;12797612;23;20060;-78
2021/03/14 11:56:15;;;;;;;11.57;2.17;;;;;;;9.61;74.81;101202.00;12798514;23;20098;-79
2021/03/14 12:01:16;;;;;;;15.98;3.88;;;;;;;9.66;73.56;101160.47;12821971;23;20443;-80
2021/03/14 12:06:16;;;;;;;12.90;2.30;;;;;;;9.70;72.82;101172.16;12822402;23;20036;-78
2021/03/14 12:11:17;;;;;;;9.88;1.92;;;;;;;9.78;71.41;101216.31;12849658;23;20032;-77
2021/03/14 12:16:17;;;;;;;9.88;2.45;;;;;;;9.29;72.36;101226.16;12848388;23;20060;-80
2021/03/14 12:21:18;;;;;;;13.75;2.53;;;;;;;9.20;72.01;101233.59;12819667;23;20339;-78
2021/03/14 12:26:20;;;;;;;12.35;2.30;;;;;;;9.64;73.32;101220.22;12849398;23;20100;-79
2021/03/14 12:31:21;;;;;;;12.60;2.17;;;;;;;9.48;70.37;101187.00;12825315;23;20024;-78
2021/03/14 12:36:39;;;;;;;8.70;1.95;;;;;;;9.55;68.20;101176.38;12852536;23;20112;-89
2021/03/14 12:41:42;;;;;;;9.23;2.05;;;;;;;9.39;69.80;101291.56;12782543;23;20013;-82
2021/03/14 12:46:42;;;;;;;13.98;1.85;;;;;;;9.19;70.80;101261.66;12826073;23;20019;-80
2021/03/14 12:51:43;;;;;;;13.15;2.30;;;;;;;8.65;71.10;101130.66;12802252;23;20416;-79
2021/03/14 12:56:43;;;;;;;10.20;1.83;;;;;;;9.66;68.68;101285.41;12778194;23;20017;-80
2021/03/14 13:01:44;;;;;;;14.93;2.83;;;;;;;9.73;70.38;101274.03;12826353;23;20015;-81
2021/03/14 13:07:01;;;;;;;16.05;1.88;;;;;;;8.74;70.40;101127.81;12851381;23;20398;-83
2021/03/14 13:12:25;;;;;;;10.25;2.05;;;;;;;8.05;68.63;101092.56;12825209;23;20001;-80
2021/03/14 13:17:35;;;;;;;14.52;2.05;;;;;;;9.78;69.00;101270.31;12825844;23;20004;-78
2021/03/14 13:22:38;;;;;;;12.82;1.98;;;;;;;9.14;68.66;101194.47;12800763;23;20359;-80
2021/03/14 13:27:59;;;;;;;;;;;;;;;;;;;;;
2021/03/14 13:33:31;;;;;;;;;;;;;;;;;;;;;
2021/03/14 13:38:34;;;;;;;12.13;2.55;;;;;;;10.23;68.96;101263.81;12852460;23;20013;-80
2021/03/14 13:44:18;;;;;;;10.98;2.65;;;;;;;10.35;70.01;101261.09;12737161;23;20012;-80
2021/03/14 13:49:39;;;;;;;8.57;2.35;;;;;;;9.40;69.03;101117.75;12799756;23;20004;-82
2021/03/14 13:54:42;;;;;;;12.80;2.15;;;;;;;10.05;67.49;101199.31;12803584;23;20012;-83
2021/03/14 13:59:45;;;;;;;10.93;2.20;;;;;;;10.62;65.39;101285.69;12777664;23;20089;-82
2021/03/14 14:10:54;;;;;;;10.55;2.80;;;;;;;8.96;65.98;101031.38;12788417;23;20075;-81
2021/03/14 14:16:35;;;;;;;;;;;;;;;;;;;;;
2021/03/14 14:21:51;;;;;;;;;;;;;;;;;;;;;
2021/03/14 14:27:25;;;;;;;;;;;;;;;;;;;;;
2021/03/14 14:32:28;;;;;;;13.13;2.15;;;;;;;9.90;64.90;101221.66;12818861;23;20028;-79
2021/03/14 14:37:28;;;;;;;;;;;;;;;10.28;65.64;101271.69;12799915;23;20397;-81
2021/03/14 14:42:28;;;;;;;14.50;2.03;;;;;;;9.92;66.00;101271.53;12822615;23;19919;-81
2021/03/14 14:47:29;;;;;;;16.45;2.13;;;;;;;9.99;65.39;101281.72;12844408;23;20035;-78
2021/03/14 14:52:29;;;;;;;5.30;1.67;;;;;;;9.55;64.90;101224.97;12844278;23;20062;-79
2021/03/14 14:57:30;;;;;;;9.80;2.78;;;;;;;9.78;67.72;101302.72;12820191;23;20312;-81
2021/03/14 15:02:30;;;;;;;10.32;2.47;;;;;;;9.08;71.66;101314.53;12818825;23;20047;-79
2021/03/14 15:07:31;;;;;;;10.85;2.15;;;;;;;8.66;83.16;101309.31;12769299;23;20008;-80
2021/03/14 15:12:32;;;;;;;12.65;2.38;;;;;;;8.16;88.26;101256.38;12819808;23;20012;-81
2021/03/14 15:17:33;;;;;;;8.73;2.20;;;;;;;8.36;91.35;101290.56;12794365;23;20009;-79
2021/03/14 15:22:33;;;;;;;8.10;1.83;;;;;;;8.73;90.22;101287.97;12819277;23;20015;-79
2021/03/14 15:27:34;;;;;;;12.52;2.33;;;;;;;8.42;89.68;101191.50;12846072;23;20289;-83
2021/03/14 15:32:34;;;;;;;17.85;2.92;;;;;;;8.98;89.97;101277.19;12744217;23;20097;-78
2021/03/14 15:37:36;;;;;;;11.73;2.30;;;;;;;8.62;91.10;101281.44;12816471;23;20008;-81
2021/03/14 15:42:37;;;;;;;9.13;1.67;;;;;;;7.83;93.76;101278.69;12818312;23;20590;-79
2021/03/14 15:47:38;;;;;;;7.05;1.92;;;;;;;7.71;95.85;101265.16;12810708;23;20044;-77
2021/03/14 15:52:38;;;;;;;8.43;2.00;;;;;;;7.87;95.86;101279.59;12842586;23;20008;-79
2021/03/14 15:57:39;;;;;;;11.82;2.55;;;;;;;8.07;95.80;101282.59;12793100;23;20208;-81
2021/03/14 16:02:39;;;;;;;14.65;2.30;;;;;;;8.25;94.26;101278.63;12790173;23;20040;-79
2021/03/14 16:07:40;;;;;;;17.13;3.28;;;;;;;8.23;93.87;101270.09;12843208;23;20013;-80
2021/03/14 16:12:40;;;;;;;18.05;3.70;;;;;;;8.28;93.02;101256.44;12820636;23;20008;-82
2021/03/14 16:17:41;;;;;;;12.82;2.88;;;;;;;8.18;92.21;101240.69;12816990;23;20015;-79
2021/03/14 16:22:42;;;;;;;13.02;3.33;;;;;;;7.95;90.95;101195.31;12823955;23;20896;-80
2021/03/14 16:27:42;;;;;;;23.85;3.08;;;;;;;7.56;90.32;101146.28;12850478;23;20829;-78
2021/03/14 16:32:43;;;;;;;24.00;5.22;;;;;;;8.09;90.02;101226.50;12801268;23;20028;-79
2021/03/14 16:37:44;;;;;;;18.52;3.50;;;;;;;8.04;89.84;101225.63;12822521;23;20017;-80
2021/03/14 16:42:45;;;;;;;19.20;3.20;;;;;;;8.24;88.97;101252.81;12849498;23;20508;-78
2021/03/14 16:47:45;;;;;;;18.48;3.33;;;;;;;7.79;90.04;101170.13;12822664;23;20012;-79
2021/03/14 16:52:46;;;;;;;14.50;2.83;;;;;;;7.82;89.86;101185.63;12799764;23;20062;-78
2021/03/14 16:57:47;;;;;;;14.88;2.78;;;;;;;7.90;89.06;101203.59;12851132;23;20012;-80
2021/03/14 17:02:47;;;;;;;16.67;2.80;;;;;;;8.12;88.54;101244.72;12769763;23;20280;-79
2021/03/14 17:07:48;;;;;;;17.48;2.67;;;;;;;7.66;89.13;101165.81;12794245;23;20016;-78
2021/03/14 17:12:49;;;;;;;17.58;2.78;;;;;;;8.28;88.29;101269.91;12794977;23;20005;-78
2021/03/14 17:17:49;;;;;;;18.35;3.67;;;;;;;8.29;89.15;101257.22;12840999;23;20005;-78
2021/03/14 17:22:50;;;;;;;17.00;3.63;;;;;;;7.90;87.91;101198.22;12820043;23;20078;-77
2021/03/14 17:27:50;;;;;;;17.50;2.80;;;;;;;8.14;87.45;101239.78;12822513;23;20020;-79
2021/03/14 17:32:51;;;;;;;18.83;3.65;;;;;;;8.02;87.54;101217.09;12850499;23;20393;-77
2021/03/14 17:37:52;;;;;;;19.20;3.30;;;;;;;7.99;86.60;101225.81;12849461;23;20436;-79
2021/03/14 17:42:52;;;;;;;12.00;2.95;;;;;;;8.07;86.73;101239.50;12821692;23;20005;-77
2021/03/14 17:47:53;;;;;;;9.65;2.30;;;;;;;8.27;86.18;101281.78;12821998;23;20019;-77
2021/03/14 17:52:53;;;;;;;18.20;3.17;;;;;;;7.81;86.22;101211.75;12796800;23;20016;-77
2021/03/14 17:57:54;;;;;;;15.25;2.40;;;;;;;8.24;84.07;101277.06;12847653;23;20036;-79
2021/03/14 18:02:54;;;;;;;19.58;3.05;;;;;;;8.24;83.82;101287.84;12821908;23;20324;-78
2021/03/14 18:07:55;;;;;;;13.48;3.03;;;;;;;8.16;84.23;101286.00;12822228;23;20016;-78
2021/03/14 18:12:55;;;;;;;18.85;3.10;;;;;;;7.77;85.06;101242.34;12848210;23;20131;-78
2021/03/14 18:17:56;;;;;;;15.13;3.03;;;;;;;7.52;83.91;101215.31;12819661;23;20108;-77
2021/03/14 18:22:56;;;;;;;15.93;2.38;;;;;;;7.48;83.94;101224.34;12844810;23;20001;-78
2021/03/14 18:27:57;;;;;;;16.88;3.42;;;;;;;7.54;83.76;101274.94;12820860;23;19998;-79
2021/03/14 18:32:59;;;;;;;11.98;2.58;;;;;;;7.58;83.90;101267.81;12793049;23;20317;-78
2021/03/14 18:37:59;;;;;;;11.70;2.20;;;;;;;7.69;83.76;101272.78;12846831;23;20016;-83
2021/03/14 18:43:00;;;;;;;17.98;2.80;;;;;;;7.25;83.79;101237.34;12797338;23;20327;-80
2021/03/14 18:48:01;;;;;;;19.40;2.78;;;;;;;7.47;83.42;101271.22;12835698;23;20013;-79
2021/03/14 18:53:01;;;;;;;16.02;2.47;;;;;;;7.59;83.41;101280.13;12810170;23;20456;-78
2021/03/14 18:58:02;;;;;;;14.57;2.58;;;;;;;7.37;83.72;101264.31;12783393;23;20004;-79
2021/03/14 19:03:02;;;;;;;11.55;2.42;;;;;;;7.36;84.27;101270.78;12768405;23;20087;-78
2021/03/14 19:08:03;;;;;;;15.77;2.55;;;;;;;7.09;84.30;101240.59;12815328;23;20043;-78
2021/03/14 19:13:04;;;;;;;15.85;2.10;;;;;;;6.95;84.14;101205.09;12792797;23;20052;-78
2021/03/14 19:18:05;;;;;;;12.23;2.58;;;;;;;7.31;84.48;101262.91;12821353;23;20048;-77
2021/03/14 19:23:06;;;;;;;17.70;3.25;;;;;;;7.24;84.60;101262.66;12770655;23;20005;-84
2021/03/14 19:28:06;;;;;;;14.15;3.83;;;;;;;6.82;84.65;101208.81;12817052;23;20433;-84
2021/03/14 19:33:07;;;;;;;13.57;2.47;;;;;;;7.28;85.18;101268.97;12817805;23;20035;-81
2021/03/14 19:38:08;;;;;;;17.05;2.58;;;;;;;7.46;84.70;101280.41;12821473;23;20008;-79
2021/03/14 19:43:08;;;;;;;15.05;2.95;;;;;;;6.70;85.34;101159.25;12824070;23;20087;-80
2021/03/14 19:48:09;;;;;;;20.00;4.72;;;;;;;7.32;85.40;101232.25;12787526;23;20012;-81
2021/03/14 19:53:10;;;;;;;18.20;2.40;;;;;;;7.10;85.76;101199.19;12835523;23;20039;-82
2021/03/14 19:58:10;;;;;;;13.15;2.10;;;;;;;7.05;85.73;101185.91;12792874;23;20023;-81
2021/03/14 20:03:11;;;;;;;25.05;2.53;;;;;;;7.08;84.31;101190.66;12812927;23;20474;-82
2021/03/14 20:08:12;;;;;;;11.32;2.30;;;;;;;7.08;84.34;101190.66;12806993;23;20521;-82
2021/03/14 20:13:12;;;;;;;12.95;2.33;;;;;;;7.11;85.21;101189.97;12817607;23;20008;-87
2021/03/14 20:18:20;;;;;;;14.88;3.17;;;;;;;6.83;85.58;101172.78;12796193;23;20028;-82
2021/03/14 20:23:20;;;;;;;16.10;2.25;;;;;;;7.41;84.80;101243.72;12809262;23;20012;-82
2021/03/14 20:28:21;;;;;;;15.25;3.25;;;;;;;7.07;84.76;101205.19;12834579;23;20501;-80
2021/03/14 20:33:24;;;;;;;12.75;2.08;;;;;;;7.06;85.73;101181.34;12832616;23;20092;-81
2021/03/14 20:38:24;;;;;;;12.27;2.13;;;;;;;7.39;86.81;101216.38;12811466;23;20013;-82
2021/03/14 20:43:25;;;;;;;13.88;2.33;;;;;;;7.44;87.30;101213.47;12842778;23;20009;-80
2021/03/14 20:48:25;;;;;;;13.85;2.47;;;;;;;7.31;88.63;101182.25;12844900;23;20434;-81
2021/03/14 20:53:26;;;;;;;12.65;1.98;;;;;;;7.42;89.08;101194.19;12848725;23;20020;-81
2021/03/14 20:58:26;;;;;;;12.13;2.00;;;;;;;7.49;87.84;101183.69;12822507;23;20392;-82
2021/03/14 21:03:27;;;;;;;19.75;3.15;;;;;;;7.52;88.25;101172.25;12848281;23;20085;-84
2021/03/14 21:08:27;;;;;;;11.95;2.25;;;;;;;7.59;90.38;101196.72;12820690;23;20067;-81
2021/03/14 21:13:28;;;;;;;13.52;1.98;;;;;;;7.42;91.47;101172.66;12848187;23;20015;-81
2021/03/14 21:18:28;;;;;;;12.25;2.22;;;;;;;7.24;93.63;101149.72;12819777;23;20009;-82
2021/03/14 21:23:32;;;;;;;11.52;2.28;;;;;;;7.29;95.28;101184.47;12817092;23;20009;-83
2021/03/14 21:28:32;;;;;;;15.48;2.10;;;;;;;7.26;98.63;101169.78;12856510;23;20676;-83
2021/03/14 21:33:33;;;;;;;17.90;3.28;;;;;;;6.85;100.00;101165.97;12849946;23;20052;-81
2021/03/14 21:38:33;;;;;;;10.98;2.53;;;;;;;6.26;100.00;101080.81;12850838;23;20017;-85
2021/03/14 21:43:34;;;;;;;14.70;2.67;;;;;;;6.48;100.00;101151.47;12823231;23;20535;-81
2021/03/14 21:48:34;;;;;;;11.27;2.47;;;;;;;5.85;100.00;101060.72;12849116;23;20013;-83
2021/03/14 21:53:35;;;;;;;11.30;2.25;;;;;;;6.46;100.00;101142.94;12796069;23;20016;-84
2021/03/14 21:58:35;;;;;;;12.60;2.25;;;;;;;6.41;100.00;101130.47;12820419;23;20067;-87
2021/03/14 22:03:37;;;;;;;9.73;2.05;;;;;;;5.93;100.00;101051.88;12844914;23;20047;-83
2021/03/14 22:08:37;;;;;;;16.42;2.83;;;;;;;6.30;100.00;101113.16;12842355;23;20076;-82
2021/03/14 22:13:38;;;;;;;15.55;2.50;;;;;;;6.25;100.00;101092.63;12835334;23;20005;-80
2021/03/14 22:18:40;;;;;;;11.23;2.22;;;;;;;5.49;100.00;100984.19;12781440;23;20009;-81
2021/03/14 22:23:41;;;;;;;11.30;3.20;;;;;;;5.71;100.00;101022.59;12808532;23;20427;-79
2021/03/14 22:28:42;;;;;;;15.63;3.28;;;;;;;5.60;100.00;101005.31;12819237;23;20017;-80
2021/03/14 22:33:45;;;;;;;19.73;3.50;;;;;;;6.02;100.00;101080.59;12823331;23;20079;-79
2021/03/14 22:38:45;;;;;;;19.50;5.18;;;;;;;5.87;100.00;101058.50;12830632;23;20079;-79
2021/03/14 22:43:46;;;;;;;19.55;5.40;;;;;;;5.65;100.00;101030.03;12823629;23;20569;-79
2021/03/14 22:48:48;;;;;;;17.70;6.18;;;;;;;6.02;100.00;101075.22;12848763;23;20012;-79
2021/03/14 22:53:49;;;;;;;;;;;;;;;6.06;100.00;101052.00;12824596;23;20142;-79
2021/03/14 22:58:51;;;;;;;27.80;6.70;;;;;;;5.67;100.00;100984.13;12797305;23;20180;-79
2021/03/14 23:04:16;;;;;;;23.33;7.03;;;;;;;6.11;100.00;101035.72;12795557;23;20232;-79
2021/03/14 23:09:17;;;;;;;28.65;8.15;;;;;;;5.93;100.00;101014.31;12822153;23;20066;-80
2021/03/14 23:14:23;;;;;;;26.40;10.18;;;;;;;5.20;100.00;100917.13;12798954;23;20050;-80
2021/03/14 23:19:30;;;;;;;31.48;9.77;;;;;;;5.51;100.00;100933.72;12800657;23;20372;-79
2021/03/14 23:24:34;;;;;;;27.25;10.35;;;;;;;5.01;100.00;100864.69;12796063;23;20013;-80